Hlavní strana
METAR-TAF:

METAR-TAF

Letiště :

Leknes, Norsko

zeměpisná šířka: 68-09N, zeměpisná délka: 013-37E, výška: 2 m

Aktuální stav počasí

Zpráva byla vytvořena před 2 hodinami a 20 minutami, v 21:50 UTC
Západní vítr 17 kt s nárazy do 27 kt
Teplota 2°C
Vlhkost vzduchu 51%
Tlak 1012 hPa
Viditelnost 10 km a více
Skoro jasno ve výšce 3000 ft
Polojasno ve výšce 4000 ft
Oblačno až skoro zataženo ve výšce 5000 ft

METAR: ENLK 212150Z 26017G27KT 9999 FEW030 SCT040 BKN050 02/M07 Q1012

Čas: 01:10 (00:10 UTC)


TAF: chybějící

Stav a předpovědi počasí z více než 4 000 letišť (zprávy METAR a TAF).

Červené a žluté tečky na mapě představují dostupné meteorologické stanice.

Když kurzor umístíte na tečku, zobrazí se název stanice.

Pak kliknutím zobrazíte stav a předpověď počasí.

Chcete-li změnit mapu, kliknutím na zelené tlačítko se znaménkem +mapu přiblížíte, kliknutím na zelené tlačítko se znaménkem – mapu oddálíte a kliknutím na zelené šipky přejdete na sousední mapy.


METAR-TAF: